Pagina principale
METAR-TAF:

METAR-TAF

Aeroporti :

Capri, Italia

latitudine: 40-33N, longitudine: 014-12E, altezza: 160 m

Osservazione

Il bollettino è stato emesso 1 ora e 12 minuti fa, alle 11:55 UTC
Vento 15 kt da ovest con raffiche fino a 29 kt
Temperature 12°C
Umidità 82%
Pressione 1017 hPa
Visibilità 10 km o più
Nubi sparse ad un'altezza di 2000 ft, Cumulonembo.
Nuvoloso ad un'altezza di 3500 ft

METAR: LIQC 161155Z 26015G29KT 9999 SCT020CB BKN035 12/09 Q1017 RMK OVC QUK 4 QUL 2 SW VIS MAR 25 KM VIS MIN 9999

Ora: 14:07 (13:07 UTC)


TAF: mancante

Osservazioni e previsioni meteorologiche di più di 4000 aeroporti (messaggi METAR e TAF).

Le stazioni disponibili sono rappresentate dai dischi gialli e rossi sulla carta.

Puntare il mouse per vedere il nome della stazione.

Clicca sopra per visualizzare le osservazioni e previsioni meteorologiche.

Per cambiare la mappa : fare clic sui pulsanti verdi con una croce nera per ingrandire, il pulsante verde con un trattino per diminuire, o sulla freccia verde per le mappe adiacenti.


METAR-TAF: